sensor_id;sensor_type;location;lat;lon;timestamp;P1;durP1;ratioP1;P2;durP2;ratioP2
944;SDS011;459;48.676;9.034;2024-01-10T00:01:47;18.30;;;12.50;;
944;SDS011;459;48.676;9.034;2024-01-10T00:04:12;20.30;;;13.00;;
944;SDS011;459;48.676;9.034;2024-01-10T00:06:38;20.23;;;12.97;;
944;SDS011;459;48.676;9.034;2024-01-10T00:09:04;18.30;;;12.93;;
944;SDS011;459;48.676;9.034;2024-01-10T00:11:29;17.90;;;13.50;;
944;SDS011;459;48.676;9.034;2024-01-10T00:13:54;14.30;;;11.33;;
944;SDS011;459;48.676;9.034;2024-01-10T00:16:25;21.83;;;12.83;;
944;SDS011;459;48.676;9.034;2024-01-10T00:18:50;17.90;;;12.60;;
944;SDS011;459;48.676;9.034;2024-01-10T00:21:15;15.50;;;12.13;;
944;SDS011;459;48.676;9.034;2024-01-10T00:23:40;20.83;;;12.70;;
944;SDS011;459;48.676;9.034;2024-01-10T00:26:05;17.30;;;13.53;;
944;SDS011;459;48.676;9.034;2024-01-10T00:28:31;14.97;;;11.30;;
944;SDS011;459;48.676;9.034;2024-01-10T00:30:56;17.40;;;13.10;;
944;SDS011;459;48.676;9.034;2024-01-10T00:33:21;22.27;;;13.77;;
944;SDS011;459;48.676;9.034;2024-01-10T00:35:46;18.27;;;13.93;;
944;SDS011;459;48.676;9.034;2024-01-10T00:38:13;16.40;;;13.50;;
944;SDS011;459;48.676;9.034;2024-01-10T00:40:38;18.63;;;13.20;;
944;SDS011;459;48.676;9.034;2024-01-10T00:43:03;15.77;;;12.93;;
944;SDS011;459;48.676;9.034;2024-01-10T00:45:29;24.63;;;13.67;;
944;SDS011;459;48.676;9.034;2024-01-10T00:47:54;17.00;;;13.10;;
944;SDS011;459;48.676;9.034;2024-01-10T00:50:19;19.57;;;12.97;;
944;SDS011;459;48.676;9.034;2024-01-10T00:52:45;15.97;;;13.50;;
944;SDS011;459;48.676;9.034;2024-01-10T00:55:10;19.17;;;13.80;;
944;SDS011;459;48.676;9.034;2024-01-10T00:57:35;21.27;;;13.43;;
944;SDS011;459;48.676;9.034;2024-01-10T01:00:03;16.87;;;12.17;;
944;SDS011;459;48.676;9.034;2024-01-10T01:02:28;15.83;;;11.40;;
944;SDS011;459;48.676;9.034;2024-01-10T01:04:53;16.80;;;12.63;;
944;SDS011;459;48.676;9.034;2024-01-10T01:07:19;22.63;;;13.93;;
944;SDS011;459;48.676;9.034;2024-01-10T01:09:44;20.87;;;12.33;;
944;SDS011;459;48.676;9.034;2024-01-10T01:12:09;19.40;;;12.03;;
944;SDS011;459;48.676;9.034;2024-01-10T01:14:34;16.17;;;11.73;;
944;SDS011;459;48.676;9.034;2024-01-10T01:16:59;18.73;;;11.50;;
944;SDS011;459;48.676;9.034;2024-01-10T01:19:24;20.03;;;12.53;;
944;SDS011;459;48.676;9.034;2024-01-10T01:21:50;19.63;;;12.13;;
944;SDS011;459;48.676;9.034;2024-01-10T01:24:15;18.47;;;11.50;;
944;SDS011;459;48.676;9.034;2024-01-10T01:26:41;17.77;;;11.60;;
944;SDS011;459;48.676;9.034;2024-01-10T01:29:06;14.93;;;10.90;;
944;SDS011;459;48.676;9.034;2024-01-10T01:31:31;16.50;;;11.30;;
944;SDS011;459;48.676;9.034;2024-01-10T01:33:56;15.73;;;11.60;;
944;SDS011;459;48.676;9.034;2024-01-10T01:36:22;16.77;;;11.10;;
944;SDS011;459;48.676;9.034;2024-01-10T01:38:47;15.63;;;10.60;;
944;SDS011;459;48.676;9.034;2024-01-10T01:41:13;12.33;;;9.60;;
944;SDS011;459;48.676;9.034;2024-01-10T01:43:40;10.97;;;9.80;;
944;SDS011;459;48.676;9.034;2024-01-10T01:46:05;12.30;;;9.77;;
944;SDS011;459;48.676;9.034;2024-01-10T01:48:30;13.73;;;10.27;;
944;SDS011;459;48.676;9.034;2024-01-10T01:50:56;13.40;;;10.13;;
944;SDS011;459;48.676;9.034;2024-01-10T01:53:23;14.77;;;10.50;;
944;SDS011;459;48.676;9.034;2024-01-10T01:55:48;16.50;;;9.80;;
944;SDS011;459;48.676;9.034;2024-01-10T01:58:14;14.93;;;10.03;;
944;SDS011;459;48.676;9.034;2024-01-10T02:00:40;12.93;;;8.90;;
944;SDS011;459;48.676;9.034;2024-01-10T02:03:05;21.80;;;10.67;;
944;SDS011;459;48.676;9.034;2024-01-10T02:05:31;23.20;;;12.33;;
944;SDS011;459;48.676;9.034;2024-01-10T02:07:57;15.47;;;9.53;;
944;SDS011;459;48.676;9.034;2024-01-10T02:10:22;14.37;;;9.47;;
944;SDS011;459;48.676;9.034;2024-01-10T02:12:47;18.27;;;11.13;;
944;SDS011;459;48.676;9.034;2024-01-10T02:15:13;18.83;;;11.27;;
944;SDS011;459;48.676;9.034;2024-01-10T02:17:38;13.43;;;10.33;;
944;SDS011;459;48.676;9.034;2024-01-10T02:20:07;15.93;;;11.03;;
944;SDS011;459;48.676;9.034;2024-01-10T02:22:33;14.57;;;11.20;;
944;SDS011;459;48.676;9.034;2024-01-10T02:24:58;16.30;;;10.50;;
944;SDS011;459;48.676;9.034;2024-01-10T02:27:23;17.63;;;11.10;;
944;SDS011;459;48.676;9.034;2024-01-10T02:29:49;15.00;;;10.63;;
944;SDS011;459;48.676;9.034;2024-01-10T02:32:14;10.37;;;9.17;;
944;SDS011;459;48.676;9.034;2024-01-10T02:34:39;15.05;;;11.02;;
944;SDS011;459;48.676;9.034;2024-01-10T02:37:04;17.33;;;10.87;;
944;SDS011;459;48.676;9.034;2024-01-10T02:39:29;15.60;;;10.80;;
944;SDS011;459;48.676;9.034;2024-01-10T02:41:55;17.20;;;10.83;;
944;SDS011;459;48.676;9.034;2024-01-10T02:44:20;12.30;;;9.77;;
944;SDS011;459;48.676;9.034;2024-01-10T02:46:47;13.27;;;9.87;;
944;SDS011;459;48.676;9.034;2024-01-10T02:49:12;15.50;;;11.70;;
944;SDS011;459;48.676;9.034;2024-01-10T02:51:37;16.83;;;11.10;;
944;SDS011;459;48.676;9.034;2024-01-10T02:54:02;14.23;;;9.30;;
944;SDS011;459;48.676;9.034;2024-01-10T02:56:27;15.77;;;10.20;;
944;SDS011;459;48.676;9.034;2024-01-10T02:58:52;14.60;;;10.17;;
944;SDS011;459;48.676;9.034;2024-01-10T03:01:18;14.30;;;11.20;;
944;SDS011;459;48.676;9.034;2024-01-10T03:03:43;16.23;;;10.87;;
944;SDS011;459;48.676;9.034;2024-01-10T03:06:08;16.97;;;12.17;;
944;SDS011;459;48.676;9.034;2024-01-10T03:08:33;15.77;;;11.03;;
944;SDS011;459;48.676;9.034;2024-01-10T03:10:59;17.23;;;10.83;;
944;SDS011;459;48.676;9.034;2024-01-10T03:13:24;11.60;;;9.80;;
944;SDS011;459;48.676;9.034;2024-01-10T03:15:49;13.30;;;10.00;;
944;SDS011;459;48.676;9.034;2024-01-10T03:18:14;15.85;;;10.52;;
944;SDS011;459;48.676;9.034;2024-01-10T03:20:40;19.10;;;13.30;;
944;SDS011;459;48.676;9.034;2024-01-10T03:23:05;13.47;;;9.80;;
944;SDS011;459;48.676;9.034;2024-01-10T03:25:30;16.10;;;11.27;;
944;SDS011;459;48.676;9.034;2024-01-10T03:27:55;12.97;;;10.37;;
944;SDS011;459;48.676;9.034;2024-01-10T03:30:20;11.63;;;9.37;;
944;SDS011;459;48.676;9.034;2024-01-10T03:32:49;14.03;;;9.97;;
944;SDS011;459;48.676;9.034;2024-01-10T03:35:14;14.27;;;10.23;;
944;SDS011;459;48.676;9.034;2024-01-10T03:37:39;14.40;;;11.47;;
944;SDS011;459;48.676;9.034;2024-01-10T03:40:05;14.20;;;10.90;;
944;SDS011;459;48.676;9.034;2024-01-10T03:42:30;13.17;;;9.97;;
944;SDS011;459;48.676;9.034;2024-01-10T03:44:55;15.17;;;9.93;;
944;SDS011;459;48.676;9.034;2024-01-10T03:47:20;14.67;;;9.93;;
944;SDS011;459;48.676;9.034;2024-01-10T03:49:46;13.00;;;10.03;;
944;SDS011;459;48.676;9.034;2024-01-10T03:52:11;15.87;;;10.83;;
944;SDS011;459;48.676;9.034;2024-01-10T03:54:36;12.00;;;9.27;;
944;SDS011;459;48.676;9.034;2024-01-10T03:57:01;16.50;;;10.47;;
944;SDS011;459;48.676;9.034;2024-01-10T03:59:27;13.97;;;10.70;;
944;SDS011;459;48.676;9.034;2024-01-10T04:01:52;11.20;;;9.60;;
944;SDS011;459;48.676;9.034;2024-01-10T04:04:17;14.47;;;10.07;;
944;SDS011;459;48.676;9.034;2024-01-10T04:06:42;17.70;;;11.03;;
944;SDS011;459;48.676;9.034;2024-01-10T04:09:08;16.93;;;10.93;;
944;SDS011;459;48.676;9.034;2024-01-10T04:11:34;17.80;;;10.57;;
944;SDS011;459;48.676;9.034;2024-01-10T04:14:00;15.07;;;10.13;;
944;SDS011;459;48.676;9.034;2024-01-10T04:16:25;15.90;;;11.17;;
944;SDS011;459;48.676;9.034;2024-01-10T04:18:50;14.90;;;10.83;;
944;SDS011;459;48.676;9.034;2024-01-10T04:21:16;16.83;;;10.57;;
944;SDS011;459;48.676;9.034;2024-01-10T04:23:41;14.60;;;9.90;;
944;SDS011;459;48.676;9.034;2024-01-10T04:26:06;12.70;;;10.02;;
944;SDS011;459;48.676;9.034;2024-01-10T04:28:31;16.27;;;10.83;;
944;SDS011;459;48.676;9.034;2024-01-10T04:30:57;13.70;;;10.13;;
944;SDS011;459;48.676;9.034;2024-01-10T04:33:22;13.80;;;9.63;;
944;SDS011;459;48.676;9.034;2024-01-10T04:35:48;14.43;;;9.63;;
944;SDS011;459;48.676;9.034;2024-01-10T04:38:13;20.57;;;11.50;;
944;SDS011;459;48.676;9.034;2024-01-10T04:40:38;14.83;;;10.33;;
944;SDS011;459;48.676;9.034;2024-01-10T04:43:03;16.37;;;11.60;;
944;SDS011;459;48.676;9.034;2024-01-10T04:45:28;17.23;;;9.90;;
944;SDS011;459;48.676;9.034;2024-01-10T04:47:54;14.03;;;10.33;;
944;SDS011;459;48.676;9.034;2024-01-10T04:50:19;10.50;;;9.50;;
944;SDS011;459;48.676;9.034;2024-01-10T04:52:44;18.60;;;11.20;;
944;SDS011;459;48.676;9.034;2024-01-10T04:55:09;18.40;;;10.50;;
944;SDS011;459;48.676;9.034;2024-01-10T04:57:35;16.00;;;9.83;;
944;SDS011;459;48.676;9.034;2024-01-10T05:00:01;14.43;;;10.67;;
944;SDS011;459;48.676;9.034;2024-01-10T05:02:26;17.47;;;11.00;;
944;SDS011;459;48.676;9.034;2024-01-10T05:04:52;17.67;;;12.53;;
944;SDS011;459;48.676;9.034;2024-01-10T05:07:17;15.73;;;10.97;;
944;SDS011;459;48.676;9.034;2024-01-10T05:09:42;17.10;;;11.00;;
944;SDS011;459;48.676;9.034;2024-01-10T05:12:07;17.73;;;12.30;;
944;SDS011;459;48.676;9.034;2024-01-10T05:14:33;13.80;;;11.17;;
944;SDS011;459;48.676;9.034;2024-01-10T05:16:58;17.13;;;11.30;;
944;SDS011;459;48.676;9.034;2024-01-10T05:19:23;17.50;;;12.97;;
944;SDS011;459;48.676;9.034;2024-01-10T05:21:48;16.90;;;11.67;;
944;SDS011;459;48.676;9.034;2024-01-10T05:24:14;17.17;;;12.07;;
944;SDS011;459;48.676;9.034;2024-01-10T05:26:39;15.60;;;12.00;;
944;SDS011;459;48.676;9.034;2024-01-10T05:29:04;19.60;;;13.30;;
944;SDS011;459;48.676;9.034;2024-01-10T05:31:29;17.13;;;10.73;;
944;SDS011;459;48.676;9.034;2024-01-10T05:33:55;16.97;;;11.70;;
944;SDS011;459;48.676;9.034;2024-01-10T05:36:23;14.23;;;10.60;;
944;SDS011;459;48.676;9.034;2024-01-10T05:38:48;16.17;;;10.93;;
944;SDS011;459;48.676;9.034;2024-01-10T05:41:14;16.40;;;10.20;;
944;SDS011;459;48.676;9.034;2024-01-10T05:43:39;18.53;;;10.90;;
944;SDS011;459;48.676;9.034;2024-01-10T05:46:04;17.57;;;10.70;;
944;SDS011;459;48.676;9.034;2024-01-10T05:48:30;18.90;;;11.33;;
944;SDS011;459;48.676;9.034;2024-01-10T05:50:55;16.53;;;11.23;;
944;SDS011;459;48.676;9.034;2024-01-10T05:53:20;14.90;;;10.80;;
944;SDS011;459;48.676;9.034;2024-01-10T05:55:45;20.20;;;12.60;;
944;SDS011;459;48.676;9.034;2024-01-10T05:58:11;13.77;;;9.60;;
944;SDS011;459;48.676;9.034;2024-01-10T06:00:36;16.70;;;13.23;;
944;SDS011;459;48.676;9.034;2024-01-10T06:03:01;18.33;;;11.20;;
944;SDS011;459;48.676;9.034;2024-01-10T06:05:26;17.17;;;11.33;;
944;SDS011;459;48.676;9.034;2024-01-10T06:07:51;19.97;;;11.87;;
944;SDS011;459;48.676;9.034;2024-01-10T06:10:17;16.23;;;10.80;;
944;SDS011;459;48.676;9.034;2024-01-10T06:12:42;21.30;;;11.90;;
944;SDS011;459;48.676;9.034;2024-01-10T06:15:08;13.97;;;11.67;;
944;SDS011;459;48.676;9.034;2024-01-10T06:17:33;16.13;;;11.10;;
944;SDS011;459;48.676;9.034;2024-01-10T06:19:58;16.50;;;10.87;;
944;SDS011;459;48.676;9.034;2024-01-10T06:22:28;17.17;;;11.67;;
944;SDS011;459;48.676;9.034;2024-01-10T06:24:53;16.77;;;11.70;;
944;SDS011;459;48.676;9.034;2024-01-10T06:27:18;17.93;;;12.03;;
944;SDS011;459;48.676;9.034;2024-01-10T06:29:44;14.40;;;11.47;;
944;SDS011;459;48.676;9.034;2024-01-10T06:32:10;14.80;;;11.10;;
944;SDS011;459;48.676;9.034;2024-01-10T06:34:35;19.33;;;13.60;;
944;SDS011;459;48.676;9.034;2024-01-10T06:37:00;17.10;;;10.93;;
944;SDS011;459;48.676;9.034;2024-01-10T06:39:25;17.00;;;11.77;;
944;SDS011;459;48.676;9.034;2024-01-10T06:41:51;18.53;;;10.10;;
944;SDS011;459;48.676;9.034;2024-01-10T06:44:17;12.07;;;10.37;;
944;SDS011;459;48.676;9.034;2024-01-10T06:46:45;20.87;;;11.30;;
944;SDS011;459;48.676;9.034;2024-01-10T06:49:10;21.57;;;11.57;;
944;SDS011;459;48.676;9.034;2024-01-10T06:51:35;25.03;;;12.70;;
944;SDS011;459;48.676;9.034;2024-01-10T06:54:01;16.07;;;11.63;;
944;SDS011;459;48.676;9.034;2024-01-10T06:56:32;15.43;;;12.13;;
944;SDS011;459;48.676;9.034;2024-01-10T06:58:58;16.93;;;11.30;;
944;SDS011;459;48.676;9.034;2024-01-10T07:01:23;14.20;;;10.83;;
944;SDS011;459;48.676;9.034;2024-01-10T07:03:48;15.80;;;11.40;;
944;SDS011;459;48.676;9.034;2024-01-10T07:06:14;20.30;;;12.00;;
944;SDS011;459;48.676;9.034;2024-01-10T07:08:42;17.07;;;11.83;;
944;SDS011;459;48.676;9.034;2024-01-10T07:11:08;19.50;;;11.47;;
944;SDS011;459;48.676;9.034;2024-01-10T07:13:33;17.90;;;12.87;;
944;SDS011;459;48.676;9.034;2024-01-10T07:15:58;20.40;;;12.80;;
944;SDS011;459;48.676;9.034;2024-01-10T07:18:27;17.23;;;12.13;;
944;SDS011;459;48.676;9.034;2024-01-10T07:20:52;14.47;;;11.20;;
944;SDS011;459;48.676;9.034;2024-01-10T07:23:18;19.90;;;12.57;;
944;SDS011;459;48.676;9.034;2024-01-10T07:25:43;18.30;;;12.13;;
944;SDS011;459;48.676;9.034;2024-01-10T07:28:08;19.37;;;12.50;;
944;SDS011;459;48.676;9.034;2024-01-10T07:30:33;20.80;;;12.10;;
944;SDS011;459;48.676;9.034;2024-01-10T07:32:58;13.40;;;11.40;;
944;SDS011;459;48.676;9.034;2024-01-10T07:35:23;21.93;;;12.30;;
944;SDS011;459;48.676;9.034;2024-01-10T07:37:49;18.53;;;12.23;;
944;SDS011;459;48.676;9.034;2024-01-10T07:40:14;21.70;;;12.00;;
944;SDS011;459;48.676;9.034;2024-01-10T07:42:39;21.47;;;13.00;;
944;SDS011;459;48.676;9.034;2024-01-10T07:45:05;21.10;;;13.47;;
944;SDS011;459;48.676;9.034;2024-01-10T07:47:30;18.43;;;13.27;;
944;SDS011;459;48.676;9.034;2024-01-10T07:49:59;19.60;;;12.80;;
944;SDS011;459;48.676;9.034;2024-01-10T07:52:24;18.00;;;11.60;;
944;SDS011;459;48.676;9.034;2024-01-10T07:54:49;15.80;;;12.00;;
944;SDS011;459;48.676;9.034;2024-01-10T07:57:14;16.03;;;11.80;;
944;SDS011;459;48.676;9.034;2024-01-10T07:59:40;20.60;;;13.43;;
944;SDS011;459;48.676;9.034;2024-01-10T08:02:05;15.07;;;11.00;;
944;SDS011;459;48.676;9.034;2024-01-10T08:04:30;18.53;;;13.80;;
944;SDS011;459;48.676;9.034;2024-01-10T08:06:55;17.93;;;12.20;;
944;SDS011;459;48.676;9.034;2024-01-10T08:09:21;18.20;;;12.50;;
944;SDS011;459;48.676;9.034;2024-01-10T08:11:46;17.87;;;12.33;;
944;SDS011;459;48.676;9.034;2024-01-10T08:14:12;14.87;;;11.10;;
944;SDS011;459;48.676;9.034;2024-01-10T08:16:37;18.63;;;13.80;;
944;SDS011;459;48.676;9.034;2024-01-10T08:19:03;17.20;;;13.03;;
944;SDS011;459;48.676;9.034;2024-01-10T08:21:28;18.30;;;11.23;;
944;SDS011;459;48.676;9.034;2024-01-10T08:23:53;20.47;;;13.90;;
944;SDS011;459;48.676;9.034;2024-01-10T08:26:18;15.40;;;12.30;;
944;SDS011;459;48.676;9.034;2024-01-10T08:28:43;16.97;;;13.83;;
944;SDS011;459;48.676;9.034;2024-01-10T08:31:09;19.80;;;13.57;;
944;SDS011;459;48.676;9.034;2024-01-10T08:33:34;23.97;;;13.83;;
944;SDS011;459;48.676;9.034;2024-01-10T08:35:59;26.60;;;14.17;;
944;SDS011;459;48.676;9.034;2024-01-10T08:38:24;16.90;;;14.30;;
944;SDS011;459;48.676;9.034;2024-01-10T08:40:50;20.53;;;12.80;;
944;SDS011;459;48.676;9.034;2024-01-10T08:43:15;15.77;;;13.00;;
944;SDS011;459;48.676;9.034;2024-01-10T08:45:40;18.87;;;13.00;;
944;SDS011;459;48.676;9.034;2024-01-10T08:48:05;19.50;;;13.87;;
944;SDS011;459;48.676;9.034;2024-01-10T08:50:31;18.00;;;13.30;;
944;SDS011;459;48.676;9.034;2024-01-10T08:52:57;20.97;;;12.00;;
944;SDS011;459;48.676;9.034;2024-01-10T08:55:22;18.67;;;14.60;;
944;SDS011;459;48.676;9.034;2024-01-10T08:57:47;20.10;;;12.50;;
944;SDS011;459;48.676;9.034;2024-01-10T09:00:14;20.53;;;12.07;;
944;SDS011;459;48.676;9.034;2024-01-10T09:02:39;22.73;;;14.60;;
944;SDS011;459;48.676;9.034;2024-01-10T09:05:05;26.63;;;16.13;;
944;SDS011;459;48.676;9.034;2024-01-10T09:07:32;20.57;;;14.57;;
944;SDS011;459;48.676;9.034;2024-01-10T09:09:57;21.33;;;15.27;;
944;SDS011;459;48.676;9.034;2024-01-10T09:12:23;26.83;;;18.00;;
944;SDS011;459;48.676;9.034;2024-01-10T09:14:48;24.23;;;17.07;;
944;SDS011;459;48.676;9.034;2024-01-10T09:17:13;17.40;;;14.53;;
944;SDS011;459;48.676;9.034;2024-01-10T09:19:38;23.40;;;16.57;;
944;SDS011;459;48.676;9.034;2024-01-10T09:22:04;22.57;;;15.87;;
944;SDS011;459;48.676;9.034;2024-01-10T09:24:29;23.63;;;15.80;;
944;SDS011;459;48.676;9.034;2024-01-10T09:26:54;25.97;;;16.00;;
944;SDS011;459;48.676;9.034;2024-01-10T09:29:20;28.03;;;17.80;;
944;SDS011;459;48.676;9.034;2024-01-10T09:31:45;25.60;;;16.17;;
944;SDS011;459;48.676;9.034;2024-01-10T09:34:10;24.47;;;16.70;;
944;SDS011;459;48.676;9.034;2024-01-10T09:36:35;24.27;;;17.63;;
944;SDS011;459;48.676;9.034;2024-01-10T09:39:00;23.77;;;15.60;;
944;SDS011;459;48.676;9.034;2024-01-10T09:41:30;28.33;;;13.77;;
944;SDS011;459;48.676;9.034;2024-01-10T09:43:56;23.20;;;16.30;;
944;SDS011;459;48.676;9.034;2024-01-10T09:46:22;27.60;;;18.53;;
944;SDS011;459;48.676;9.034;2024-01-10T09:48:48;27.23;;;18.97;;
944;SDS011;459;48.676;9.034;2024-01-10T09:51:13;28.47;;;17.37;;
944;SDS011;459;48.676;9.034;2024-01-10T09:53:39;28.53;;;18.07;;
944;SDS011;459;48.676;9.034;2024-01-10T09:56:05;23.90;;;17.50;;
944;SDS011;459;48.676;9.034;2024-01-10T09:58:30;28.70;;;16.60;;
944;SDS011;459;48.676;9.034;2024-01-10T10:00:56;23.47;;;17.10;;
944;SDS011;459;48.676;9.034;2024-01-10T10:03:21;23.50;;;17.30;;
944;SDS011;459;48.676;9.034;2024-01-10T10:05:46;25.70;;;15.03;;
944;SDS011;459;48.676;9.034;2024-01-10T10:08:12;23.03;;;14.97;;
944;SDS011;459;48.676;9.034;2024-01-10T10:10:40;21.17;;;15.50;;
944;SDS011;459;48.676;9.034;2024-01-10T10:13:08;25.13;;;16.20;;
944;SDS011;459;48.676;9.034;2024-01-10T10:15:35;29.07;;;16.10;;
944;SDS011;459;48.676;9.034;2024-01-10T10:18:01;28.80;;;16.40;;
944;SDS011;459;48.676;9.034;2024-01-10T10:20:28;26.30;;;16.50;;
944;SDS011;459;48.676;9.034;2024-01-10T10:23:00;25.33;;;17.40;;
944;SDS011;459;48.676;9.034;2024-01-10T10:25:29;23.23;;;16.67;;
944;SDS011;459;48.676;9.034;2024-01-10T10:27:55;22.53;;;18.10;;
944;SDS011;459;48.676;9.034;2024-01-10T10:30:20;25.50;;;17.90;;
944;SDS011;459;48.676;9.034;2024-01-10T10:32:47;31.00;;;17.10;;
944;SDS011;459;48.676;9.034;2024-01-10T10:35:12;25.77;;;16.73;;
944;SDS011;459;48.676;9.034;2024-01-10T10:37:37;27.43;;;15.73;;
944;SDS011;459;48.676;9.034;2024-01-10T10:40:03;23.03;;;17.70;;
944;SDS011;459;48.676;9.034;2024-01-10T10:42:28;28.50;;;18.47;;
944;SDS011;459;48.676;9.034;2024-01-10T10:44:56;25.80;;;16.50;;
944;SDS011;459;48.676;9.034;2024-01-10T10:47:22;31.87;;;16.53;;
944;SDS011;459;48.676;9.034;2024-01-10T10:49:51;27.80;;;16.93;;
944;SDS011;459;48.676;9.034;2024-01-10T10:52:17;24.53;;;17.23;;
944;SDS011;459;48.676;9.034;2024-01-10T10:54:44;26.23;;;18.27;;
944;SDS011;459;48.676;9.034;2024-01-10T10:57:11;21.90;;;16.03;;
944;SDS011;459;48.676;9.034;2024-01-10T10:59:36;17.73;;;15.53;;
944;SDS011;459;48.676;9.034;2024-01-10T11:02:02;22.80;;;16.70;;
944;SDS011;459;48.676;9.034;2024-01-10T11:04:29;23.40;;;16.50;;
944;SDS011;459;48.676;9.034;2024-01-10T11:06:54;13.30;;;11.67;;
944;SDS011;459;48.676;9.034;2024-01-10T11:09:19;20.60;;;15.70;;
944;SDS011;459;48.676;9.034;2024-01-10T11:11:56;28.70;;;19.20;;
944;SDS011;459;48.676;9.034;2024-01-10T11:20:10;22.17;;;17.13;;
944;SDS011;459;48.676;9.034;2024-01-10T11:25:14;24.63;;;16.40;;
944;SDS011;459;48.676;9.034;2024-01-10T11:27:40;24.43;;;16.43;;
944;SDS011;459;48.676;9.034;2024-01-10T11:30:05;28.03;;;18.43;;
944;SDS011;459;48.676;9.034;2024-01-10T11:32:31;23.80;;;15.97;;
944;SDS011;459;48.676;9.034;2024-01-10T11:34:58;24.20;;;16.10;;
944;SDS011;459;48.676;9.034;2024-01-10T11:37:42;24.93;;;16.90;;
944;SDS011;459;48.676;9.034;2024-01-10T11:40:08;25.10;;;17.97;;
944;SDS011;459;48.676;9.034;2024-01-10T11:42:41;21.87;;;15.60;;
944;SDS011;459;48.676;9.034;2024-01-10T11:45:06;24.00;;;17.03;;
944;SDS011;459;48.676;9.034;2024-01-10T11:47:32;16.50;;;12.13;;
944;SDS011;459;48.676;9.034;2024-01-10T11:49:58;21.30;;;14.40;;
944;SDS011;459;48.676;9.034;2024-01-10T11:52:23;22.77;;;17.83;;
944;SDS011;459;48.676;9.034;2024-01-10T11:54:49;20.77;;;16.03;;
944;SDS011;459;48.676;9.034;2024-01-10T11:57:19;22.70;;;14.93;;
944;SDS011;459;48.676;9.034;2024-01-10T11:59:45;19.33;;;15.03;;
944;SDS011;459;48.676;9.034;2024-01-10T12:02:11;14.50;;;9.90;;
944;SDS011;459;48.676;9.034;2024-01-10T12:04:37;22.27;;;14.87;;
944;SDS011;459;48.676;9.034;2024-01-10T12:07:02;22.23;;;14.87;;
944;SDS011;459;48.676;9.034;2024-01-10T12:09:28;20.50;;;14.03;;
944;SDS011;459;48.676;9.034;2024-01-10T12:11:59;18.60;;;14.40;;
944;SDS011;459;48.676;9.034;2024-01-10T12:14:25;22.83;;;16.40;;
944;SDS011;459;48.676;9.034;2024-01-10T12:16:51;30.27;;;16.70;;
944;SDS011;459;48.676;9.034;2024-01-10T12:19:16;21.90;;;16.00;;
944;SDS011;459;48.676;9.034;2024-01-10T12:21:42;19.50;;;14.30;;
944;SDS011;459;48.676;9.034;2024-01-10T12:24:07;18.33;;;13.53;;
944;SDS011;459;48.676;9.034;2024-01-10T12:26:32;26.00;;;14.97;;
944;SDS011;459;48.676;9.034;2024-01-10T12:28:58;21.93;;;15.67;;
944;SDS011;459;48.676;9.034;2024-01-10T12:31:24;23.87;;;16.90;;
944;SDS011;459;48.676;9.034;2024-01-10T12:33:51;27.40;;;17.60;;
944;SDS011;459;48.676;9.034;2024-01-10T12:36:17;20.07;;;15.10;;
944;SDS011;459;48.676;9.034;2024-01-10T12:38:43;21.70;;;15.53;;
944;SDS011;459;48.676;9.034;2024-01-10T12:41:09;23.20;;;15.20;;
944;SDS011;459;48.676;9.034;2024-01-10T12:43:35;19.70;;;14.80;;
944;SDS011;459;48.676;9.034;2024-01-10T12:48:28;20.70;;;14.50;;
944;SDS011;459;48.676;9.034;2024-01-10T12:50:54;24.60;;;16.37;;
944;SDS011;459;48.676;9.034;2024-01-10T12:53:19;16.37;;;13.50;;
944;SDS011;459;48.676;9.034;2024-01-10T12:55:44;22.27;;;15.90;;
944;SDS011;459;48.676;9.034;2024-01-10T12:58:10;18.87;;;14.07;;
944;SDS011;459;48.676;9.034;2024-01-10T13:00:35;22.70;;;14.40;;
944;SDS011;459;48.676;9.034;2024-01-10T13:03:00;23.00;;;14.63;;
944;SDS011;459;48.676;9.034;2024-01-10T13:05:28;19.07;;;14.73;;
944;SDS011;459;48.676;9.034;2024-01-10T13:07:53;22.27;;;15.17;;
944;SDS011;459;48.676;9.034;2024-01-10T13:10:18;22.50;;;14.97;;
944;SDS011;459;48.676;9.034;2024-01-10T13:12:43;22.43;;;14.97;;
944;SDS011;459;48.676;9.034;2024-01-10T13:15:10;16.50;;;13.73;;
944;SDS011;459;48.676;9.034;2024-01-10T13:17:35;23.33;;;15.37;;
944;SDS011;459;48.676;9.034;2024-01-10T13:20:00;22.47;;;15.23;;
944;SDS011;459;48.676;9.034;2024-01-10T13:22:25;16.83;;;13.90;;
944;SDS011;459;48.676;9.034;2024-01-10T13:24:50;19.63;;;13.87;;
944;SDS011;459;48.676;9.034;2024-01-10T13:27:16;17.30;;;14.17;;
944;SDS011;459;48.676;9.034;2024-01-10T13:29:41;19.70;;;14.13;;
944;SDS011;459;48.676;9.034;2024-01-10T13:32:06;19.87;;;13.50;;
944;SDS011;459;48.676;9.034;2024-01-10T13:34:32;20.13;;;14.93;;
944;SDS011;459;48.676;9.034;2024-01-10T13:37:00;18.87;;;13.70;;
944;SDS011;459;48.676;9.034;2024-01-10T13:39:27;19.60;;;13.27;;
944;SDS011;459;48.676;9.034;2024-01-10T13:41:52;18.93;;;14.13;;
944;SDS011;459;48.676;9.034;2024-01-10T13:44:18;16.80;;;13.50;;
944;SDS011;459;48.676;9.034;2024-01-10T13:46:43;15.53;;;12.47;;
944;SDS011;459;48.676;9.034;2024-01-10T13:49:08;16.40;;;12.23;;
944;SDS011;459;48.676;9.034;2024-01-10T13:51:33;18.00;;;12.60;;
944;SDS011;459;48.676;9.034;2024-01-10T13:53:59;18.90;;;13.80;;
944;SDS011;459;48.676;9.034;2024-01-10T13:56:24;16.83;;;12.63;;
944;SDS011;459;48.676;9.034;2024-01-10T13:58:49;19.43;;;13.63;;
944;SDS011;459;48.676;9.034;2024-01-10T14:01:14;18.33;;;14.33;;
944;SDS011;459;48.676;9.034;2024-01-10T14:03:40;16.60;;;12.70;;
944;SDS011;459;48.676;9.034;2024-01-10T14:06:05;21.03;;;13.53;;
944;SDS011;459;48.676;9.034;2024-01-10T14:08:30;17.20;;;12.30;;
944;SDS011;459;48.676;9.034;2024-01-10T14:10:55;20.20;;;13.73;;
944;SDS011;459;48.676;9.034;2024-01-10T14:13:20;18.63;;;13.83;;
944;SDS011;459;48.676;9.034;2024-01-10T14:15:48;20.20;;;13.10;;
944;SDS011;459;48.676;9.034;2024-01-10T14:18:13;15.00;;;11.93;;
944;SDS011;459;48.676;9.034;2024-01-10T14:20:38;18.50;;;12.73;;
944;SDS011;459;48.676;9.034;2024-01-10T14:23:04;14.53;;;12.80;;
944;SDS011;459;48.676;9.034;2024-01-10T14:25:29;14.70;;;11.67;;
944;SDS011;459;48.676;9.034;2024-01-10T14:27:54;18.33;;;13.70;;
944;SDS011;459;48.676;9.034;2024-01-10T14:30:19;19.77;;;13.10;;
944;SDS011;459;48.676;9.034;2024-01-10T14:32:45;21.00;;;14.33;;
944;SDS011;459;48.676;9.034;2024-01-10T14:35:12;17.70;;;12.70;;
944;SDS011;459;48.676;9.034;2024-01-10T14:37:37;17.20;;;14.07;;
944;SDS011;459;48.676;9.034;2024-01-10T14:40:03;16.23;;;14.10;;
944;SDS011;459;48.676;9.034;2024-01-10T14:42:28;18.17;;;13.43;;
944;SDS011;459;48.676;9.034;2024-01-10T14:44:54;18.50;;;15.00;;
944;SDS011;459;48.676;9.034;2024-01-10T14:47:19;17.07;;;14.00;;
944;SDS011;459;48.676;9.034;2024-01-10T14:49:46;16.63;;;13.00;;
944;SDS011;459;48.676;9.034;2024-01-10T14:52:11;20.50;;;14.57;;
944;SDS011;459;48.676;9.034;2024-01-10T14:54:36;17.00;;;13.60;;
944;SDS011;459;48.676;9.034;2024-01-10T14:57:02;15.30;;;12.57;;
944;SDS011;459;48.676;9.034;2024-01-10T14:59:28;16.97;;;13.17;;
944;SDS011;459;48.676;9.034;2024-01-10T15:01:54;18.40;;;12.60;;
944;SDS011;459;48.676;9.034;2024-01-10T15:04:19;15.77;;;14.03;;
944;SDS011;459;48.676;9.034;2024-01-10T15:06:47;16.60;;;14.00;;
944;SDS011;459;48.676;9.034;2024-01-10T15:09:13;17.83;;;14.10;;
944;SDS011;459;48.676;9.034;2024-01-10T15:11:39;20.50;;;13.73;;
944;SDS011;459;48.676;9.034;2024-01-10T15:14:05;21.33;;;16.47;;
944;SDS011;459;48.676;9.034;2024-01-10T15:16:30;22.07;;;16.90;;
944;SDS011;459;48.676;9.034;2024-01-10T15:18:56;21.13;;;16.33;;